createdAt,value
2018-01-07T00:00:49.818Z,89.68
2018-01-07T00:03:17.444Z,89.37
2018-01-07T00:05:45.063Z,90.05
2018-01-07T00:08:12.630Z,90.02
2018-01-07T00:10:40.281Z,88.77
2018-01-07T00:13:08.237Z,89.38
2018-01-07T00:15:35.807Z,88.40
2018-01-07T00:18:03.382Z,88.63
2018-01-07T00:20:30.946Z,89.82
2018-01-07T00:22:59.356Z,88.47
2018-01-07T00:25:27.714Z,88.42
2018-01-07T00:27:55.354Z,88.25
2018-01-07T00:30:23.015Z,86.39
2018-01-07T00:32:51.384Z,87.26
2018-01-07T00:35:18.954Z,87.04
2018-01-07T00:37:46.579Z,87.17
2018-01-07T00:40:14.965Z,86.76
2018-01-07T00:42:43.272Z,87.02
2018-01-07T00:45:11.650Z,86.51
2018-01-07T00:47:39.226Z,86.06
2018-01-07T00:50:06.795Z,87.03
2018-01-07T00:52:35.154Z,87.71
2018-01-07T00:55:03.519Z,87.25
2018-01-07T00:57:31.865Z,86.43
2018-01-07T00:59:59.439Z,86.54
2018-01-07T01:02:27.006Z,86.30
2018-01-07T01:04:54.625Z,86.36
2018-01-07T01:07:22.940Z,85.76
2018-01-07T01:09:51.355Z,86.26
2018-01-07T01:12:19.723Z,85.45
2018-01-07T01:14:48.121Z,84.87
2018-01-07T01:17:15.698Z,86.37
2018-01-07T01:19:43.334Z,85.67
2018-01-07T01:22:11.602Z,86.82
2018-01-07T01:24:39.170Z,86.00
2018-01-07T01:27:07.523Z,85.91
2018-01-07T01:29:36.010Z,85.51
2018-01-07T01:32:04.395Z,84.93
2018-01-07T01:34:31.966Z,84.20
2018-01-07T01:37:00.566Z,84.35
2018-01-07T01:39:28.238Z,84.86
2018-01-07T01:41:56.758Z,85.47
2018-01-07T01:44:24.379Z,85.33
2018-01-07T01:46:52.036Z,84.04
2018-01-07T01:49:23.506Z,83.77
2018-01-07T01:51:51.080Z,84.57
2018-01-07T01:54:19.414Z,83.60
2018-01-07T01:56:47.680Z,83.50
2018-01-07T01:59:15.251Z,83.85
2018-01-07T02:01:42.930Z,82.84
2018-01-07T02:04:10.494Z,82.21
2018-01-07T02:06:38.075Z,83.41
2018-01-07T02:09:05.687Z,83.11
2018-01-07T02:11:33.264Z,82.41
2018-01-07T02:14:00.931Z,83.01
2018-01-07T02:16:28.503Z,83.04
2018-01-07T02:18:56.087Z,82.99
2018-01-07T02:21:23.715Z,83.01
2018-01-07T02:23:51.290Z,83.73
2018-01-07T02:26:18.868Z,82.98
2018-01-07T02:28:46.463Z,82.52
2018-01-07T02:31:14.040Z,82.99
2018-01-07T02:33:41.656Z,83.19
2018-01-07T02:36:09.413Z,83.03
2018-01-07T02:38:37.572Z,83.88
2018-01-07T02:41:05.148Z,84.09
2018-01-07T02:43:32.736Z,83.05
2018-01-07T02:46:00.383Z,83.58
2018-01-07T02:48:28.011Z,83.57
2018-01-07T02:50:55.587Z,83.00
2018-01-07T02:53:23.243Z,82.88
2018-01-07T02:55:50.853Z,83.64
2018-01-07T02:58:18.460Z,82.22
2018-01-07T03:00:46.038Z,83.71
2018-01-07T03:03:13.683Z,82.30
2018-01-07T03:05:41.253Z,81.94
2018-01-07T03:08:08.836Z,83.72
2018-01-07T03:10:36.503Z,82.21
2018-01-07T03:13:04.076Z,82.85
2018-01-07T03:15:31.644Z,83.98
2018-01-07T03:17:59.254Z,83.45
2018-01-07T03:20:26.917Z,81.84
2018-01-07T03:22:54.494Z,81.05
2018-01-07T03:25:22.146Z,81.79
2018-01-07T03:27:49.726Z,80.61
2018-01-07T03:30:17.426Z,81.79
2018-01-07T03:32:45.014Z,81.46
2018-01-07T03:35:12.595Z,81.26
2018-01-07T03:37:40.219Z,80.66
2018-01-07T03:40:07.798Z,80.21
2018-01-07T03:42:35.383Z,80.33
2018-01-07T03:45:03.087Z,80.57
2018-01-07T03:47:30.660Z,81.06
2018-01-07T03:49:58.400Z,81.95
2018-01-07T03:52:25.978Z,81.57
2018-01-07T03:54:53.594Z,81.13
2018-01-07T03:57:21.401Z,81.09
2018-01-07T03:59:48.983Z,81.58
2018-01-07T04:02:16.575Z,80.75
2018-01-07T04:04:44.237Z,81.73
2018-01-07T04:07:11.910Z,80.88
2018-01-07T04:09:39.491Z,81.94
2018-01-07T04:12:07.115Z,83.99
2018-01-07T04:14:34.784Z,82.71
2018-01-07T04:17:02.363Z,80.37
2018-01-07T04:19:29.972Z,81.91
2018-01-07T04:21:57.577Z,82.84
2018-01-07T04:24:25.159Z,82.14
2018-01-07T04:26:52.737Z,81.33
2018-01-07T04:29:20.319Z,81.14
2018-01-07T04:31:47.899Z,81.76
2018-01-07T04:34:15.479Z,80.57
2018-01-07T04:36:43.106Z,80.78
2018-01-07T04:39:10.704Z,81.18
2018-01-07T04:41:38.286Z,82.75
2018-01-07T04:44:05.924Z,81.65
2018-01-07T04:46:33.510Z,82.66
2018-01-07T04:49:01.094Z,82.25
2018-01-07T04:51:28.708Z,81.45
2018-01-07T04:53:56.377Z,81.44
2018-01-07T04:56:24.225Z,82.72
2018-01-07T04:58:51.845Z,83.40
2018-01-07T05:01:19.513Z,81.18
2018-01-07T05:03:47.090Z,82.12
2018-01-07T05:06:14.719Z,82.54
2018-01-07T05:08:42.303Z,83.36
2018-01-07T05:11:09.877Z,82.46
2018-01-07T05:13:37.465Z,83.44
2018-01-07T05:16:05.135Z,81.17
2018-01-07T05:18:32.762Z,82.62
2018-01-07T05:21:00.332Z,82.00
2018-01-07T05:23:27.899Z,82.21
2018-01-07T05:25:55.641Z,81.95
2018-01-07T05:28:23.213Z,82.37
2018-01-07T05:30:50.811Z,81.80
2018-01-07T05:33:18.383Z,81.44
2018-01-07T05:35:46.027Z,81.57
2018-01-07T05:38:13.647Z,82.25
2018-01-07T05:40:41.255Z,82.40
2018-01-07T05:43:11.934Z,81.36
2018-01-07T05:45:39.722Z,81.72
2018-01-07T05:48:07.294Z,83.36
2018-01-07T05:50:34.898Z,81.49
2018-01-07T05:53:02.492Z,82.60
2018-01-07T05:55:30.098Z,81.98
2018-01-07T05:57:57.771Z,83.88
2018-01-07T06:00:25.426Z,82.05
2018-01-07T06:02:52.999Z,81.69
2018-01-07T06:05:20.575Z,82.21
2018-01-07T06:07:48.250Z,83.69
2018-01-07T06:10:15.828Z,83.27
2018-01-07T06:12:43.506Z,82.04
2018-01-07T06:15:11.093Z,82.92
2018-01-07T06:17:38.669Z,83.15
2018-01-07T06:20:06.248Z,82.89
2018-01-07T06:22:33.828Z,82.75
2018-01-07T06:25:01.495Z,82.38
2018-01-07T06:27:29.079Z,82.21
2018-01-07T06:29:56.648Z,82.38
2018-01-07T06:32:24.219Z,83.22
2018-01-07T06:34:51.799Z,82.28
2018-01-07T06:37:19.405Z,82.47
2018-01-07T06:39:47.015Z,82.66
2018-01-07T06:42:14.591Z,81.88
2018-01-07T06:44:42.203Z,83.58
2018-01-07T06:47:09.783Z,82.73
2018-01-07T06:49:37.356Z,82.49
2018-01-07T06:52:04.951Z,82.01
2018-01-07T06:54:32.633Z,81.93
2018-01-07T06:57:00.243Z,82.22
2018-01-07T06:59:27.819Z,82.56
2018-01-07T07:01:55.666Z,82.98
2018-01-07T07:04:23.239Z,82.97
2018-01-07T07:06:50.810Z,82.90
2018-01-07T07:09:18.424Z,82.21
2018-01-07T07:11:45.994Z,81.81
2018-01-07T07:14:13.643Z,82.91
2018-01-07T07:16:41.210Z,81.92
2018-01-07T07:19:08.807Z,81.72
2018-01-07T07:21:36.384Z,81.50
2018-01-07T07:24:03.954Z,81.50
2018-01-07T07:26:31.527Z,81.18
2018-01-07T07:28:59.097Z,81.57
2018-01-07T07:31:26.707Z,81.05
2018-01-07T07:33:54.446Z,80.69
2018-01-07T07:36:22.048Z,81.55
2018-01-07T07:38:51.300Z,82.13
2018-01-07T07:41:20.559Z,81.31
2018-01-07T07:43:48.146Z,82.09
2018-01-07T07:46:15.723Z,82.00
2018-01-07T07:48:43.298Z,81.88
2018-01-07T07:51:10.915Z,81.05
2018-01-07T07:53:38.500Z,80.76
2018-01-07T07:56:06.079Z,80.33
2018-01-07T07:58:33.655Z,80.75
2018-01-07T08:01:01.237Z,80.78
2018-01-07T08:03:28.936Z,80.88
2018-01-07T08:05:56.508Z,81.08
2018-01-07T08:08:24.115Z,81.48
2018-01-07T08:10:51.771Z,82.94
2018-01-07T08:13:19.385Z,81.27
2018-01-07T08:15:46.995Z,81.53
2018-01-07T08:18:16.459Z,81.75
2018-01-07T08:20:44.044Z,82.37
2018-01-07T08:23:12.614Z,81.65
2018-01-07T08:25:40.204Z,82.28
2018-01-07T08:28:07.863Z,82.99
2018-01-07T08:30:35.445Z,81.91
2018-01-07T08:33:03.100Z,81.37
2018-01-07T08:35:30.705Z,81.22
2018-01-07T08:37:58.323Z,82.00
2018-01-07T08:40:25.940Z,81.96
2018-01-07T08:42:53.606Z,80.82
2018-01-07T08:45:21.340Z,82.05
2018-01-07T08:47:48.914Z,81.18
2018-01-07T08:50:16.564Z,82.45
2018-01-07T08:52:44.144Z,82.99
2018-01-07T08:55:11.860Z,82.22
2018-01-07T08:57:39.448Z,80.63
2018-01-07T09:00:07.027Z,81.24
2018-01-07T09:02:34.598Z,81.87
2018-01-07T09:05:02.179Z,80.60
2018-01-07T09:07:29.867Z,79.84
2018-01-07T09:09:57.544Z,80.10
2018-01-07T09:12:25.155Z,81.56
2018-01-07T09:14:52.809Z,79.02
2018-01-07T09:17:20.447Z,79.94
2018-01-07T09:19:48.082Z,79.72
2018-01-07T09:22:16.567Z,79.17
2018-01-07T09:24:44.147Z,80.36
2018-01-07T09:27:11.722Z,80.40
2018-01-07T09:29:39.299Z,80.18
2018-01-07T09:32:06.871Z,79.44
2018-01-07T09:37:12.324Z,78.28
2018-01-07T09:39:39.897Z,77.70
2018-01-07T09:42:07.474Z,78.79
2018-01-07T09:44:35.059Z,80.46
2018-01-07T09:47:02.720Z,77.01
2018-01-07T09:49:30.378Z,78.89
2018-01-07T09:51:57.963Z,77.50
2018-01-07T09:54:25.536Z,78.18
2018-01-07T09:56:53.112Z,80.07
2018-01-07T09:59:20.771Z,78.75
2018-01-07T10:01:48.499Z,77.47
2018-01-07T10:04:16.086Z,78.96
2018-01-07T10:06:43.719Z,77.68
2018-01-07T10:09:11.927Z,76.93
2018-01-07T10:11:39.542Z,80.93
2018-01-07T10:14:07.120Z,78.10
2018-01-07T10:16:34.694Z,77.33
2018-01-07T10:19:02.301Z,77.13
2018-01-07T10:21:29.918Z,78.14
2018-01-07T10:23:57.501Z,78.15
2018-01-07T10:26:25.111Z,77.55
2018-01-07T10:28:52.683Z,77.07
2018-01-07T10:31:20.270Z,76.49
2018-01-07T10:33:47.908Z,77.95
2018-01-07T10:36:15.487Z,76.99
2018-01-07T10:38:43.130Z,77.68
2018-01-07T10:41:10.716Z,76.57
2018-01-07T10:43:38.352Z,77.88
2018-01-07T10:46:06.069Z,77.35
2018-01-07T10:48:33.641Z,76.84
2018-01-07T10:51:01.303Z,77.89
2018-01-07T10:53:29.719Z,76.11
2018-01-07T10:55:57.295Z,76.24
2018-01-07T10:58:24.870Z,76.31
2018-01-07T11:00:58.160Z,75.46
2018-01-07T11:03:25.730Z,75.65
2018-01-07T11:05:53.359Z,74.46
2018-01-07T11:08:21.025Z,75.22
2018-01-07T11:10:48.718Z,76.43
2018-01-07T11:13:16.347Z,76.37
2018-01-07T11:15:43.964Z,76.37
2018-01-07T11:18:11.686Z,73.37
2018-01-07T11:20:39.331Z,73.15
2018-01-07T11:23:07.173Z,74.86
2018-01-07T11:25:34.876Z,72.02
2018-01-07T11:28:02.583Z,73.61
2018-01-07T11:30:30.282Z,74.78
2018-01-07T11:32:57.948Z,74.71
2018-01-07T11:35:25.584Z,72.72
2018-01-07T11:37:53.164Z,73.07
2018-01-07T11:40:20.742Z,77.16
2018-01-07T11:42:48.414Z,75.83
2018-01-07T11:45:16.034Z,73.15
2018-01-07T11:47:43.616Z,74.09
2018-01-07T11:50:11.189Z,72.74
2018-01-07T11:52:38.910Z,73.00
2018-01-07T11:55:06.542Z,73.91
2018-01-07T11:57:34.378Z,74.29
2018-01-07T12:00:02.050Z,73.17
2018-01-07T12:02:29.708Z,75.33
2018-01-07T12:04:57.427Z,74.93
2018-01-07T12:07:25.146Z,74.38
2018-01-07T12:09:53.425Z,73.72
2018-01-07T12:12:21.051Z,75.11
2018-01-07T12:14:48.651Z,75.30
2018-01-07T12:17:16.240Z,74.60
2018-01-07T12:19:43.933Z,77.18
2018-01-07T12:22:11.548Z,76.30
2018-01-07T12:24:39.197Z,76.42
2018-01-07T12:27:06.956Z,74.70
2018-01-07T12:29:34.532Z,74.29
2018-01-07T12:32:02.148Z,74.55
2018-01-07T12:34:29.727Z,75.31
2018-01-07T12:36:57.307Z,76.41
2018-01-07T12:39:24.923Z,76.25
2018-01-07T12:41:52.534Z,74.74
2018-01-07T12:44:20.725Z,75.57
2018-01-07T12:46:48.347Z,75.60
2018-01-07T12:49:16.444Z,74.48
2018-01-07T12:51:44.637Z,77.10
2018-01-07T12:54:12.455Z,76.35
2018-01-07T12:56:40.151Z,76.39
2018-01-07T12:59:07.764Z,75.45
2018-01-07T13:01:35.343Z,76.94
2018-01-07T13:04:03.060Z,75.82
2018-01-07T13:06:30.687Z,76.45
2018-01-07T13:08:58.355Z,75.06
2018-01-07T13:11:26.759Z,75.70
2018-01-07T13:13:54.375Z,75.64
2018-01-07T13:16:22.023Z,76.68
2018-01-07T13:18:49.604Z,75.15
2018-01-07T13:21:17.196Z,75.44
2018-01-07T13:23:44.773Z,76.51
2018-01-07T13:26:12.352Z,77.13
2018-01-07T13:28:39.974Z,75.79
2018-01-07T13:31:07.606Z,75.83
2018-01-07T13:33:35.191Z,76.24
2018-01-07T13:36:02.772Z,75.89
2018-01-07T13:38:30.353Z,75.42
2018-01-07T13:40:57.932Z,76.55
2018-01-07T13:43:25.563Z,74.57
2018-01-07T13:45:53.141Z,74.46
2018-01-07T13:48:20.763Z,74.22
2018-01-07T13:50:48.339Z,73.80
2018-01-07T13:53:15.915Z,75.71
2018-01-07T13:55:43.532Z,74.95
2018-01-07T13:58:11.116Z,73.78
2018-01-07T14:00:38.694Z,76.09
2018-01-07T14:03:06.275Z,76.57
2018-01-07T14:05:33.895Z,73.79
2018-01-07T14:08:01.542Z,75.08
2018-01-07T14:10:29.243Z,75.92
2018-01-07T14:12:56.872Z,77.04
2018-01-07T14:15:24.535Z,77.42
2018-01-07T14:17:52.194Z,76.17
2018-01-07T14:20:19.778Z,78.24
2018-01-07T14:22:47.440Z,78.90
2018-01-07T14:25:15.046Z,78.95
2018-01-07T14:27:42.799Z,79.20
2018-01-07T14:30:10.392Z,78.53
2018-01-07T14:32:38.084Z,80.11
2018-01-07T14:35:05.769Z,80.28
2018-01-07T14:37:33.406Z,81.24
2018-01-07T14:40:00.997Z,81.31
2018-01-07T14:42:28.655Z,80.20
2018-01-07T14:44:56.288Z,80.41
2018-01-07T14:47:23.987Z,81.44
2018-01-07T14:49:51.648Z,81.41
2018-01-07T14:52:19.241Z,81.79
2018-01-07T14:54:46.886Z,82.23
2018-01-07T14:57:14.459Z,82.87
2018-01-07T14:59:42.060Z,82.79
2018-01-07T15:02:09.649Z,81.80
2018-01-07T15:04:37.231Z,82.97
2018-01-07T15:07:04.887Z,82.87
2018-01-07T15:09:32.465Z,82.48
2018-01-07T15:12:00.088Z,84.46
2018-01-07T15:14:27.676Z,83.17
2018-01-07T15:16:55.323Z,82.30
2018-01-07T15:19:22.915Z,83.80
2018-01-07T15:21:50.533Z,83.49
2018-01-07T15:24:18.175Z,83.47
2018-01-07T15:26:45.791Z,84.44
2018-01-07T15:29:13.371Z,83.97
2018-01-07T15:31:41.899Z,85.58
2018-01-07T15:34:09.520Z,85.74
2018-01-07T15:36:37.208Z,84.94
2018-01-07T15:39:04.838Z,85.75
2018-01-07T15:41:32.423Z,85.86
2018-01-07T15:44:00.114Z,85.34
2018-01-07T15:46:27.757Z,85.09
2018-01-07T15:48:55.421Z,85.55
2018-01-07T15:51:23.094Z,86.55
2018-01-07T15:53:50.707Z,86.17
2018-01-07T15:56:18.358Z,87.09
2018-01-07T15:58:45.984Z,87.05
2018-01-07T16:01:13.616Z,87.48
2018-01-07T16:03:41.210Z,87.05
2018-01-07T16:06:08.874Z,87.27
2018-01-07T16:08:36.553Z,87.34
2018-01-07T16:11:04.161Z,85.98
2018-01-07T16:13:31.851Z,86.44
2018-01-07T16:15:59.443Z,85.59
2018-01-07T16:18:27.071Z,86.64
2018-01-07T16:20:54.733Z,87.18
2018-01-07T16:23:22.356Z,87.44
2018-01-07T16:25:50.064Z,87.72
2018-01-07T16:28:17.833Z,87.98
2018-01-07T16:30:45.491Z,87.55
2018-01-07T16:33:13.121Z,86.63
2018-01-07T16:35:40.714Z,87.76
2018-01-07T16:38:08.426Z,88.07
2018-01-07T16:40:36.036Z,88.03
2018-01-07T16:43:03.627Z,88.18
2018-01-07T16:45:31.263Z,87.65
2018-01-07T16:47:58.856Z,88.82
2018-01-07T16:50:26.442Z,87.82
2018-01-07T16:52:54.031Z,88.48
2018-01-07T16:55:21.652Z,88.65
2018-01-07T16:57:49.299Z,89.32
2018-01-07T17:00:16.887Z,88.97
2018-01-07T17:02:44.516Z,88.93
2018-01-07T17:05:12.184Z,88.72
2018-01-07T17:07:39.922Z,88.65
2018-01-07T17:10:07.623Z,88.36
2018-01-07T17:12:35.333Z,89.00
2018-01-07T17:15:02.958Z,88.94
2018-01-07T17:17:30.602Z,89.22
2018-01-07T17:19:58.199Z,89.02
2018-01-07T17:22:25.798Z,89.47
2018-01-07T17:24:54.165Z,90.06
2018-01-07T17:27:21.839Z,89.81
2018-01-07T17:29:49.446Z,89.66
2018-01-07T17:32:17.028Z,90.27
2018-01-07T17:34:44.726Z,90.07
2018-01-07T17:37:12.315Z,90.34
2018-01-07T17:39:40.534Z,90.14
2018-01-07T17:42:08.223Z,90.34
2018-01-07T17:44:35.807Z,91.14
2018-01-07T17:47:03.400Z,90.86
2018-01-07T17:49:31.673Z,90.85
2018-01-07T17:51:59.307Z,91.00
2018-01-07T17:54:26.901Z,90.85
2018-01-07T17:56:55.071Z,90.98
2018-01-07T17:59:22.667Z,90.98
2018-01-07T18:01:52.013Z,90.82
2018-01-07T18:04:19.695Z,91.06
2018-01-07T18:06:49.860Z,90.72
2018-01-07T18:09:21.776Z,89.72
2018-01-07T18:11:49.371Z,90.12
2018-01-07T18:14:18.678Z,90.77
2018-01-07T18:16:47.275Z,90.62
2018-01-07T18:19:18.706Z,90.96
2018-01-07T18:21:49.286Z,90.43
2018-01-07T18:24:17.597Z,90.20
2018-01-07T18:26:48.009Z,91.03
2018-01-07T18:29:16.222Z,90.94
2018-01-07T18:31:44.131Z,90.57
2018-01-07T18:34:11.791Z,90.00
2018-01-07T18:36:39.392Z,90.18
2018-01-07T18:39:06.980Z,90.63
2018-01-07T18:41:34.596Z,90.08
2018-01-07T18:44:02.185Z,90.18
2018-01-07T18:46:29.950Z,90.54
2018-01-07T18:48:57.595Z,90.76
2018-01-07T18:51:25.195Z,91.17
2018-01-07T18:53:52.817Z,91.26
2018-01-07T18:56:20.520Z,90.90
2018-01-07T18:58:48.247Z,90.22
2018-01-07T19:01:15.853Z,90.08
2018-01-07T19:03:43.551Z,91.07
2018-01-07T19:06:11.238Z,90.39
2018-01-07T19:08:38.866Z,91.30
2018-01-07T19:11:06.491Z,91.09
2018-01-07T19:13:34.141Z,90.57
2018-01-07T19:16:01.706Z,90.89
2018-01-07T19:18:29.305Z,91.39
2018-01-07T19:20:56.898Z,91.56
2018-01-07T19:23:24.533Z,91.68
2018-01-07T19:25:52.130Z,91.62
2018-01-07T19:28:19.761Z,90.70
2018-01-07T19:30:47.599Z,91.34
2018-01-07T19:33:15.839Z,91.62
2018-01-07T19:35:43.496Z,92.46
2018-01-07T19:38:11.077Z,91.31
2018-01-07T19:40:38.668Z,91.59
2018-01-07T19:43:06.300Z,91.02
2018-01-07T19:45:33.896Z,91.50
2018-01-07T19:48:01.626Z,91.40
2018-01-07T19:50:29.220Z,91.45
2018-01-07T19:52:57.710Z,91.59
2018-01-07T19:55:25.386Z,91.90
2018-01-07T19:57:53.049Z,92.29
2018-01-07T20:00:20.691Z,92.17
2018-01-07T20:02:48.280Z,92.96
2018-01-07T20:05:15.940Z,91.73
2018-01-07T20:07:43.571Z,92.38
2018-01-07T20:10:11.164Z,92.32
2018-01-07T20:12:38.763Z,91.18
2018-01-07T20:15:06.415Z,92.16
2018-01-07T20:17:35.725Z,92.34
2018-01-07T20:20:03.959Z,91.84
2018-01-07T20:22:32.275Z,92.02
2018-01-07T20:25:05.797Z,91.96
2018-01-07T20:28:05.356Z,91.98
2018-01-07T20:44:59.838Z,92.09
2018-01-07T20:47:27.473Z,91.99
2018-01-07T20:49:55.083Z,92.23
2018-01-07T20:52:22.921Z,92.25
2018-01-07T20:54:50.616Z,92.30
2018-01-07T20:57:18.445Z,92.14
2018-01-07T20:59:46.046Z,92.23
2018-01-07T21:02:13.758Z,92.18
2018-01-07T21:04:41.476Z,92.80
2018-01-07T21:07:09.069Z,92.60
2018-01-07T21:09:36.657Z,91.99
2018-01-07T21:12:04.359Z,92.44
2018-01-07T21:14:32.188Z,92.11
2018-01-07T21:16:59.787Z,92.84
2018-01-07T21:19:27.743Z,92.15
2018-01-07T21:21:55.402Z,92.18
2018-01-07T21:24:22.988Z,92.63
2018-01-07T21:26:50.682Z,92.29
2018-01-07T21:29:18.271Z,92.73
2018-01-07T21:31:45.971Z,93.46
2018-01-07T21:34:13.683Z,92.79
2018-01-07T21:36:41.270Z,92.50
2018-01-07T21:39:08.858Z,92.55
2018-01-07T21:41:36.794Z,92.22
2018-01-07T21:44:04.415Z,92.18
2018-01-07T21:46:32.086Z,92.77
2018-01-07T21:48:59.750Z,93.25
2018-01-07T21:51:27.347Z,91.99
2018-01-07T21:53:55.719Z,92.30
2018-01-07T21:56:23.299Z,92.49
2018-01-07T21:58:50.894Z,92.54
2018-01-07T22:04:30.241Z,92.78
2018-01-07T22:07:02.610Z,92.64
2018-01-07T22:09:30.272Z,92.06
2018-01-07T22:11:57.915Z,92.42
2018-01-07T22:14:25.511Z,92.44
2018-01-07T22:16:53.209Z,92.66
2018-01-07T22:19:20.823Z,92.76
2018-01-07T22:21:48.407Z,92.52
2018-01-07T22:24:16.031Z,92.35
2018-01-07T22:26:43.623Z,92.52
2018-01-07T22:29:11.271Z,92.96
2018-01-07T22:31:38.891Z,92.87
2018-01-07T22:34:06.516Z,93.11
2018-01-07T22:36:34.154Z,93.32
2018-01-07T22:39:01.755Z,92.76
2018-01-07T22:41:29.431Z,92.75
2018-01-07T22:43:57.055Z,92.74
2018-01-07T22:46:24.676Z,92.78
2018-01-07T22:48:52.418Z,93.06
2018-01-07T22:51:20.015Z,92.80
2018-01-07T22:53:47.623Z,92.67
2018-01-07T22:56:15.356Z,93.15
2018-01-07T22:58:43.024Z,92.98
2018-01-07T23:01:10.680Z,93.01
2018-01-07T23:03:38.268Z,93.46
2018-01-07T23:06:05.890Z,93.24
2018-01-07T23:08:33.486Z,93.14
2018-01-07T23:11:01.080Z,93.12
2018-01-07T23:13:28.673Z,93.08
2018-01-07T23:15:56.299Z,93.21
2018-01-07T23:18:23.919Z,92.92
2018-01-07T23:20:51.542Z,93.07
2018-01-07T23:23:19.122Z,93.11
2018-01-07T23:25:46.735Z,92.84
2018-01-07T23:28:14.360Z,92.79
2018-01-07T23:30:42.022Z,92.84
2018-01-07T23:33:12.087Z,92.75
2018-01-07T23:35:39.671Z,93.12
2018-01-07T23:38:07.258Z,93.39
2018-01-07T23:40:34.851Z,93.84
2018-01-07T23:43:02.437Z,93.18
2018-01-07T23:45:30.074Z,93.17
2018-01-07T23:47:57.672Z,93.07
2018-01-07T23:50:25.255Z,92.84
2018-01-07T23:52:52.839Z,92.72
2018-01-07T23:55:20.432Z,93.10
2018-01-07T23:57:48.069Z,92.95
